createdAt,value
2022-09-03T00:00:55.735Z,69.00
2022-09-03T00:03:29.167Z,69.10
2022-09-03T00:06:07.611Z,69.10
2022-09-03T00:08:41.417Z,69.20
2022-09-03T00:11:16.676Z,69.10
2022-09-03T00:13:52.527Z,69.10
2022-09-03T00:16:25.310Z,69.10
2022-09-03T00:18:57.813Z,69.10
2022-09-03T00:21:34.402Z,69.10
2022-09-03T00:24:06.037Z,69.20
2022-09-03T00:26:41.992Z,69.20
2022-09-03T00:29:16.567Z,69.10
2022-09-03T00:31:47.712Z,68.80
2022-09-03T00:34:23.201Z,68.90
2022-09-03T00:36:51.545Z,68.90
2022-09-03T00:39:22.108Z,68.70
2022-09-03T00:42:06.863Z,68.70
2022-09-03T00:44:55.068Z,68.70
2022-09-03T00:47:31.042Z,68.70
2022-09-03T00:50:09.342Z,68.70
2022-09-03T00:52:49.180Z,68.90
2022-09-03T00:55:28.389Z,69.20
2022-09-03T00:58:14.244Z,69.30
2022-09-03T01:00:45.987Z,69.30
2022-09-03T01:03:19.695Z,69.40
2022-09-03T01:06:03.536Z,69.50
2022-09-03T01:08:49.223Z,69.70
2022-09-03T01:11:26.838Z,69.80
2022-09-03T01:14:03.713Z,69.80
2022-09-03T01:16:39.905Z,69.80
2022-09-03T01:19:25.573Z,69.80
2022-09-03T01:22:10.952Z,69.70
2022-09-03T01:24:59.290Z,69.80
2022-09-03T01:27:40.317Z,69.90
2022-09-03T01:30:17.136Z,69.90
2022-09-03T01:32:53.115Z,70.00
2022-09-03T01:35:28.660Z,70.10
2022-09-03T01:38:10.639Z,70.30
2022-09-03T01:40:53.659Z,70.50
2022-09-03T01:43:43.319Z,70.50
2022-09-03T01:46:21.184Z,70.80
2022-09-03T01:48:55.214Z,70.80
2022-09-03T01:51:25.778Z,70.80
2022-09-03T01:54:29.442Z,71.10
2022-09-03T01:57:35.200Z,71.20
2022-09-03T02:00:09.522Z,71.10
2022-09-03T02:02:41.101Z,71.20
2022-09-03T02:05:12.103Z,71.20
2022-09-03T02:07:43.285Z,71.30
2022-09-03T02:10:14.866Z,71.40
2022-09-03T02:12:47.585Z,71.40
2022-09-03T02:15:19.744Z,71.50
2022-09-03T02:17:51.220Z,71.50
2022-09-03T02:20:21.849Z,71.50
2022-09-03T02:22:50.912Z,71.60
2022-09-03T02:25:19.433Z,71.80
2022-09-03T02:27:49.516Z,71.90
2022-09-03T02:30:19.093Z,71.90
2022-09-03T02:32:49.083Z,72.00
2022-09-03T02:35:17.826Z,72.10
2022-09-03T02:37:45.984Z,72.00
2022-09-03T02:40:14.234Z,72.10
2022-09-03T02:42:42.802Z,72.00
2022-09-03T02:45:20.800Z,71.90
2022-09-03T02:47:53.834Z,71.90
2022-09-03T02:50:22.198Z,71.90
2022-09-03T02:52:50.716Z,71.90
2022-09-03T02:55:19.641Z,71.90
2022-09-03T02:57:48.181Z,71.90
2022-09-03T03:00:16.648Z,72.00
2022-09-03T03:02:47.028Z,72.10
2022-09-03T03:05:23.379Z,72.20
2022-09-03T03:07:51.485Z,72.20
2022-09-03T03:10:19.703Z,72.40
2022-09-03T03:12:47.879Z,72.30
2022-09-03T03:15:16.482Z,72.40
2022-09-03T03:17:44.682Z,72.40
2022-09-03T03:20:12.892Z,72.60
2022-09-03T03:22:42.512Z,72.70
2022-09-03T03:25:11.162Z,72.80
2022-09-03T03:27:41.906Z,72.80
2022-09-03T03:30:11.422Z,72.70
2022-09-03T03:32:39.988Z,72.70
2022-09-03T03:35:09.187Z,72.70
2022-09-03T03:37:37.390Z,72.90
2022-09-03T03:40:08.069Z,73.00
2022-09-03T03:42:36.618Z,73.10
2022-09-03T03:45:05.733Z,73.10
2022-09-03T03:47:34.635Z,73.20
2022-09-03T03:50:03.157Z,73.20
2022-09-03T03:52:31.402Z,73.20
2022-09-03T03:54:59.581Z,73.30
2022-09-03T03:57:32.333Z,73.30
2022-09-03T04:00:00.514Z,73.30
2022-09-03T04:02:28.793Z,73.30
2022-09-03T04:04:57.190Z,73.50
2022-09-03T04:07:27.219Z,73.50
2022-09-03T04:09:55.477Z,73.50
2022-09-03T04:12:23.636Z,73.50
2022-09-03T04:14:53.235Z,73.50
2022-09-03T04:17:25.154Z,73.50
2022-09-03T04:19:53.651Z,73.60
2022-09-03T04:22:21.904Z,73.60
2022-09-03T04:24:50.177Z,73.60
2022-09-03T04:27:18.293Z,73.70
2022-09-03T04:29:46.546Z,73.70
2022-09-03T04:32:33.472Z,73.70
2022-09-03T04:35:01.613Z,73.80
2022-09-03T04:37:29.878Z,73.80
2022-09-03T04:39:58.130Z,73.80
2022-09-03T04:42:26.413Z,73.80
2022-09-03T04:44:54.674Z,73.80
2022-09-03T04:47:24.201Z,73.80
2022-09-03T04:49:54.151Z,73.80
2022-09-03T04:52:22.600Z,73.70
2022-09-03T04:54:50.796Z,73.60
2022-09-03T04:57:19.036Z,73.30
2022-09-03T04:59:47.450Z,72.70
2022-09-03T05:02:15.783Z,72.50
2022-09-03T05:04:46.834Z,72.30
2022-09-03T05:07:14.968Z,72.30
2022-09-03T05:09:43.142Z,72.50
2022-09-03T05:12:11.453Z,72.10
2022-09-03T05:14:39.706Z,72.10
2022-09-03T05:17:07.896Z,72.20
2022-09-03T05:19:36.117Z,72.40
2022-09-03T05:22:05.689Z,72.50
2022-09-03T05:24:33.954Z,72.30
2022-09-03T05:27:02.348Z,72.30
2022-09-03T05:29:30.513Z,72.20
2022-09-03T05:31:59.110Z,72.10
2022-09-03T05:34:27.807Z,71.90
2022-09-03T05:36:58.621Z,71.90
2022-09-03T05:39:28.318Z,71.60
2022-09-03T05:41:56.831Z,71.50
2022-09-03T05:44:25.028Z,71.40
2022-09-03T05:46:53.608Z,71.10
2022-09-03T05:49:21.811Z,71.10
2022-09-03T05:51:50.085Z,70.90
2022-09-03T05:54:18.315Z,70.70
2022-09-03T05:56:47.964Z,70.70
2022-09-03T05:59:16.219Z,70.80
2022-09-03T06:01:51.464Z,70.80
2022-09-03T06:04:20.711Z,70.90
2022-09-03T06:06:49.912Z,70.80
2022-09-03T06:09:23.225Z,70.80
2022-09-03T06:11:54.378Z,70.90
2022-09-03T06:14:25.882Z,70.60
2022-09-03T06:16:55.694Z,70.60
2022-09-03T06:19:24.022Z,70.40
2022-09-03T06:21:52.236Z,70.50
2022-09-03T06:24:26.247Z,70.50
2022-09-03T06:26:57.819Z,70.60
2022-09-03T06:29:26.087Z,70.30
2022-09-03T06:31:54.371Z,70.30
2022-09-03T06:34:25.657Z,70.30
2022-09-03T06:36:54.800Z,70.10
2022-09-03T06:39:24.763Z,69.70
2022-09-03T06:41:53.603Z,69.50
2022-09-03T06:44:23.250Z,69.00
2022-09-03T06:46:53.592Z,68.70
2022-09-03T06:49:21.845Z,68.40
2022-09-03T06:51:50.002Z,68.20
2022-09-03T06:54:18.298Z,67.90
2022-09-03T06:56:46.524Z,68.00
2022-09-03T06:59:16.223Z,67.50
2022-09-03T07:01:46.707Z,67.20
2022-09-03T07:04:19.183Z,66.80
2022-09-03T07:06:47.656Z,66.50
2022-09-03T07:09:18.393Z,66.30
2022-09-03T07:11:49.781Z,66.00
2022-09-03T07:14:19.771Z,65.70
2022-09-03T07:16:50.697Z,65.60
2022-09-03T07:19:19.374Z,65.50
2022-09-03T07:21:50.440Z,65.70
2022-09-03T07:24:21.958Z,65.80
2022-09-03T07:26:50.592Z,65.90
2022-09-03T07:29:21.595Z,66.00
2022-09-03T07:31:53.156Z,65.90
2022-09-03T07:34:24.380Z,65.80
2022-09-03T07:36:54.174Z,65.50
2022-09-03T07:39:22.617Z,65.20
2022-09-03T07:41:50.984Z,65.00
2022-09-03T07:44:20.622Z,65.10
2022-09-03T07:46:52.042Z,64.40
2022-09-03T07:49:21.887Z,64.10
2022-09-03T07:51:54.231Z,64.00
2022-09-03T07:54:24.012Z,63.70
2022-09-03T07:56:52.607Z,63.40
2022-09-03T07:59:23.029Z,62.60
2022-09-03T08:01:53.093Z,62.50
2022-09-03T08:04:22.186Z,62.00
2022-09-03T08:06:55.417Z,61.40
2022-09-03T08:09:23.749Z,61.30
2022-09-03T08:11:52.330Z,61.20
2022-09-03T08:14:20.510Z,60.90
2022-09-03T08:16:49.004Z,60.90
2022-09-03T08:19:19.548Z,60.60
2022-09-03T08:21:47.915Z,60.50
2022-09-03T08:24:17.873Z,60.00
2022-09-03T08:26:51.313Z,60.00
2022-09-03T08:29:21.015Z,59.80
2022-09-03T08:31:49.391Z,59.70
2022-09-03T08:34:19.179Z,59.00
2022-09-03T08:36:48.222Z,59.00
2022-09-03T08:39:17.030Z,59.30
2022-09-03T08:42:12.018Z,59.80
2022-09-03T08:44:47.184Z,59.80
2022-09-03T08:47:22.085Z,59.90
2022-09-03T08:49:56.957Z,59.90
2022-09-03T08:52:32.587Z,60.00
2022-09-03T08:55:13.093Z,60.30
2022-09-03T08:57:46.973Z,60.30
2022-09-03T09:00:15.637Z,60.50
2022-09-03T09:02:55.230Z,60.70
2022-09-03T09:05:31.937Z,60.70
2022-09-03T09:08:10.886Z,60.90
2022-09-03T09:10:45.548Z,61.80
2022-09-03T09:13:23.698Z,63.00
2022-09-03T09:16:04.889Z,64.20
2022-09-03T09:18:47.908Z,64.80
2022-09-03T09:21:24.249Z,65.40
2022-09-03T09:23:56.633Z,66.00
2022-09-03T09:26:24.928Z,66.70
2022-09-03T09:28:58.780Z,67.00
2022-09-03T09:31:28.554Z,67.20
2022-09-03T09:33:56.778Z,67.90
2022-09-03T09:36:26.733Z,68.00
2022-09-03T09:38:56.399Z,68.40
2022-09-03T09:41:29.532Z,68.70
2022-09-03T09:44:03.198Z,69.10
2022-09-03T09:46:36.921Z,69.80
2022-09-03T09:49:23.651Z,69.80
2022-09-03T09:52:03.200Z,70.30
2022-09-03T09:54:32.952Z,70.80
2022-09-03T09:57:03.839Z,71.20
2022-09-03T09:59:34.393Z,71.70
2022-09-03T10:02:13.830Z,72.00
2022-09-03T10:04:50.886Z,72.70
2022-09-03T10:07:30.173Z,72.90
2022-09-03T10:10:02.771Z,73.20
2022-09-03T10:12:35.893Z,73.20
2022-09-03T10:15:16.818Z,73.70
2022-09-03T10:17:56.883Z,74.20
2022-09-03T10:20:33.724Z,74.40
2022-09-03T10:23:09.806Z,74.60
2022-09-03T10:25:53.778Z,75.00
2022-09-03T10:28:24.644Z,75.30
2022-09-03T10:31:13.933Z,76.20
2022-09-03T10:33:49.497Z,76.50
2022-09-03T10:36:23.236Z,76.80
2022-09-03T10:39:01.804Z,76.80
2022-09-03T10:41:42.630Z,76.80
2022-09-03T10:44:35.308Z,76.40
2022-09-03T10:47:19.719Z,76.00
2022-09-03T10:49:59.227Z,76.20
2022-09-03T10:52:32.807Z,76.60
2022-09-03T10:55:20.417Z,76.80
2022-09-03T10:57:56.773Z,77.00
2022-09-03T11:00:26.156Z,77.10
2022-09-03T11:03:25.380Z,77.40
2022-09-03T11:06:01.582Z,77.70
2022-09-03T11:08:35.261Z,77.40
2022-09-03T11:11:13.355Z,77.30
2022-09-03T11:13:46.061Z,77.10
2022-09-03T11:16:20.112Z,77.30
2022-09-03T11:18:52.845Z,77.30
2022-09-03T11:21:26.013Z,77.10
2022-09-03T11:24:02.695Z,77.10
2022-09-03T11:26:33.085Z,76.60
2022-09-03T11:29:08.294Z,76.60
2022-09-03T11:31:48.199Z,76.80
2022-09-03T11:34:32.329Z,77.10
2022-09-03T11:37:14.913Z,77.00
2022-09-03T11:39:43.171Z,76.90
2022-09-03T11:42:22.183Z,76.10
2022-09-03T11:44:52.791Z,75.80
2022-09-03T11:47:25.523Z,75.50
2022-09-03T11:49:55.091Z,74.70
2022-09-03T11:52:32.266Z,74.60
2022-09-03T11:55:00.653Z,74.40
2022-09-03T11:57:32.005Z,73.50
2022-09-03T12:00:11.813Z,72.90
2022-09-03T12:02:46.470Z,73.00
2022-09-03T12:05:27.385Z,71.80
2022-09-03T12:08:42.048Z,71.50
2022-09-03T12:11:25.841Z,71.30
2022-09-03T12:14:04.289Z,70.20
2022-09-03T12:16:51.047Z,69.40
2022-09-03T12:19:28.955Z,69.20
2022-09-03T12:21:57.711Z,68.20
2022-09-03T12:24:37.812Z,67.90
2022-09-03T12:27:08.063Z,66.70
2022-09-03T12:29:37.935Z,66.30
2022-09-03T12:32:12.888Z,66.30
2022-09-03T12:34:41.092Z,66.10
2022-09-03T12:40:22.189Z,64.50
2022-09-03T12:42:51.478Z,64.30
2022-09-03T12:45:24.553Z,64.10
2022-09-03T12:47:53.680Z,63.40
2022-09-03T12:50:24.012Z,63.70
2022-09-03T12:52:56.353Z,63.40
2022-09-03T12:55:34.150Z,63.40
2022-09-03T12:58:11.422Z,62.60
2022-09-03T13:00:47.102Z,61.20
2022-09-03T13:03:19.530Z,60.90
2022-09-03T13:05:53.326Z,60.70
2022-09-03T13:08:25.566Z,59.80
2022-09-03T13:10:56.446Z,60.20
2022-09-03T13:13:27.233Z,60.80
2022-09-03T13:16:31.098Z,60.20
2022-09-03T13:19:07.243Z,59.80
2022-09-03T13:21:44.634Z,60.00
2022-09-03T13:24:30.288Z,59.70
2022-09-03T13:27:08.431Z,59.70
2022-09-03T13:29:45.076Z,59.50
2022-09-03T13:32:37.177Z,59.50
2022-09-03T13:35:12.103Z,58.50
2022-09-03T13:37:44.375Z,58.80
2022-09-03T13:40:28.475Z,58.00
2022-09-03T13:43:03.284Z,58.20
2022-09-03T13:45:38.294Z,58.10
2022-09-03T13:48:30.682Z,58.10
2022-09-03T13:51:08.596Z,57.70
2022-09-03T13:53:45.845Z,56.80
2022-09-03T13:56:31.130Z,56.30
2022-09-03T13:59:08.733Z,56.20
2022-09-03T14:01:53.493Z,55.10
2022-09-03T14:04:31.125Z,54.90
2022-09-03T14:07:04.187Z,54.30
2022-09-03T14:09:43.477Z,54.30
2022-09-03T14:12:17.360Z,54.00
2022-09-03T14:14:53.517Z,53.00
2022-09-03T14:17:37.501Z,52.90
2022-09-03T14:20:14.078Z,52.50
2022-09-03T14:22:50.895Z,52.60
2022-09-03T14:25:21.266Z,51.90
2022-09-03T14:27:49.728Z,51.50
2022-09-03T14:30:31.319Z,52.20
2022-09-03T14:33:09.549Z,52.10
2022-09-03T14:35:52.721Z,52.10
2022-09-03T14:38:55.617Z,51.90
2022-09-03T14:42:11.679Z,51.80
2022-09-03T14:45:01.759Z,51.80
2022-09-03T14:47:42.947Z,50.70
2022-09-03T14:50:23.819Z,50.90
2022-09-03T14:53:21.544Z,50.10
2022-09-03T14:56:01.656Z,49.30
2022-09-03T14:58:46.237Z,48.80
2022-09-03T15:01:20.865Z,48.50
2022-09-03T15:04:20.870Z,47.80
2022-09-03T15:07:00.170Z,47.70
2022-09-03T15:09:37.241Z,46.80
2022-09-03T15:12:17.458Z,46.90
2022-09-03T15:14:54.293Z,46.80
2022-09-03T15:17:39.667Z,46.60
2022-09-03T15:20:24.662Z,46.20
2022-09-03T15:23:24.465Z,45.70
2022-09-03T15:26:31.085Z,45.60
2022-09-03T15:29:20.013Z,45.60
2022-09-03T15:31:57.986Z,44.80
2022-09-03T15:34:47.706Z,44.40
2022-09-03T15:37:21.748Z,44.20
2022-09-03T15:40:02.157Z,44.00
2022-09-03T15:42:31.886Z,43.60
2022-09-03T15:45:08.278Z,43.70
2022-09-03T15:47:51.452Z,43.20
2022-09-03T15:50:32.963Z,42.70
2022-09-03T15:53:05.031Z,38.90
2022-09-03T15:55:37.231Z,40.00
2022-09-03T15:58:14.409Z,38.70
2022-09-03T16:01:02.040Z,36.50
2022-09-03T16:03:48.421Z,34.60
2022-09-03T16:06:29.148Z,31.80
2022-09-03T16:09:02.172Z,29.50
2022-09-03T16:11:38.700Z,29.70
2022-09-03T16:14:12.663Z,28.40
2022-09-03T16:17:00.448Z,27.20
2022-09-03T16:19:33.339Z,28.10
2022-09-03T16:22:05.668Z,31.60
2022-09-03T16:24:44.433Z,33.80
2022-09-03T16:27:19.942Z,36.00
2022-09-03T16:29:59.678Z,37.90
2022-09-03T16:32:47.248Z,39.20
2022-09-03T16:35:28.970Z,40.40
2022-09-03T16:38:11.931Z,41.70
2022-09-03T16:40:47.501Z,42.40
2022-09-03T16:43:40.120Z,43.30
2022-09-03T16:46:26.788Z,43.90
2022-09-03T16:49:08.106Z,44.60
2022-09-03T16:51:43.839Z,45.30
2022-09-03T16:54:28.380Z,45.70
2022-09-03T16:57:08.504Z,46.00
2022-09-03T17:00:05.517Z,46.60
2022-09-03T17:03:05.603Z,47.50
2022-09-03T17:06:03.312Z,49.10
2022-09-03T17:08:43.421Z,49.90
2022-09-03T17:11:26.038Z,50.70
2022-09-03T17:14:13.746Z,51.10
2022-09-03T17:16:49.151Z,51.90
2022-09-03T17:19:27.199Z,52.60
2022-09-03T17:22:13.828Z,53.00
2022-09-03T17:24:47.949Z,53.50
2022-09-03T17:27:47.634Z,53.80
2022-09-03T17:30:23.316Z,54.30
2022-09-03T17:33:26.610Z,54.60
2022-09-03T17:36:04.143Z,55.00
2022-09-03T17:39:17.520Z,55.20
2022-09-03T17:41:53.258Z,55.70
2022-09-03T17:44:38.623Z,56.10
2022-09-03T17:47:27.125Z,56.40
2022-09-03T17:49:58.164Z,56.80
2022-09-03T17:52:36.917Z,57.10
2022-09-03T17:55:18.194Z,57.60
2022-09-03T17:57:50.379Z,58.00
2022-09-03T18:00:25.287Z,58.40
2022-09-03T18:03:00.700Z,58.90
2022-09-03T18:05:31.887Z,59.10
2022-09-03T18:08:06.352Z,59.50
2022-09-03T18:10:58.879Z,60.00
2022-09-03T18:13:44.982Z,60.60
2022-09-03T18:16:18.976Z,60.90
2022-09-03T18:18:51.401Z,61.20
2022-09-03T18:21:40.435Z,61.50
2022-09-03T18:24:40.193Z,61.60
2022-09-03T18:27:31.231Z,61.70
2022-09-03T18:30:22.219Z,62.10
2022-09-03T18:33:08.068Z,62.30
2022-09-03T18:35:54.475Z,62.50
2022-09-03T18:38:44.526Z,62.50
2022-09-03T18:41:56.420Z,62.80
2022-09-03T18:45:06.567Z,63.10
2022-09-03T18:48:15.281Z,63.40
2022-09-03T18:51:10.497Z,63.50
2022-09-03T18:54:09.064Z,63.80
2022-09-03T18:57:00.454Z,63.80
2022-09-03T19:00:11.542Z,64.30
2022-09-03T19:03:08.985Z,64.70
2022-09-03T19:06:06.677Z,64.90
2022-09-03T19:09:00.065Z,65.20
2022-09-03T19:11:54.941Z,65.80
2022-09-03T19:14:53.791Z,66.10
2022-09-03T19:17:48.747Z,66.00
2022-09-03T19:20:41.413Z,66.00
2022-09-03T19:23:26.752Z,65.90
2022-09-03T19:26:16.595Z,65.90
2022-09-03T19:29:04.711Z,65.90
2022-09-03T19:32:01.771Z,66.00
2022-09-03T19:35:15.285Z,66.40
2022-09-03T19:38:12.098Z,66.60
2022-09-03T19:41:11.093Z,67.00
2022-09-03T19:44:04.944Z,67.30
2022-09-03T19:47:00.888Z,67.50
2022-09-03T19:49:56.811Z,67.60
2022-09-03T19:52:49.078Z,67.70
2022-09-03T19:55:40.555Z,67.70
2022-09-03T19:58:42.521Z,68.00
2022-09-03T20:01:30.549Z,68.10
2022-09-03T20:04:22.429Z,68.30
2022-09-03T20:07:07.917Z,68.50
2022-09-03T20:10:01.013Z,68.60
2022-09-03T20:12:34.014Z,68.70
2022-09-03T20:15:04.909Z,68.80
2022-09-03T20:17:40.949Z,68.90
2022-09-03T20:20:17.468Z,69.00
2022-09-03T20:22:54.884Z,69.30
2022-09-03T20:25:39.099Z,69.40
2022-09-03T20:28:21.711Z,69.60
2022-09-03T20:30:57.697Z,69.80
2022-09-03T20:33:37.563Z,69.70
2022-09-03T20:36:22.247Z,69.70
2022-09-03T20:39:04.951Z,69.90
2022-09-03T20:41:40.201Z,70.10
2022-09-03T20:44:39.139Z,70.20
2022-09-03T20:47:23.625Z,70.40
2022-09-03T20:50:10.059Z,70.60
2022-09-03T20:52:48.537Z,70.80
2022-09-03T20:55:21.042Z,70.80
2022-09-03T20:57:55.053Z,70.90
2022-09-03T21:00:23.951Z,71.20
2022-09-03T21:03:15.277Z,71.30
2022-09-03T21:06:04.023Z,71.40
2022-09-03T21:09:01.993Z,71.50
2022-09-03T21:11:39.110Z,71.60
2022-09-03T21:14:18.457Z,71.70
2022-09-03T21:16:57.602Z,71.80
2022-09-03T21:19:44.801Z,71.90
2022-09-03T21:22:25.013Z,72.00
2022-09-03T21:24:59.234Z,72.30
2022-09-03T21:27:34.237Z,72.30
2022-09-03T21:30:05.741Z,72.40
2022-09-03T21:32:42.145Z,72.50
2022-09-03T21:35:17.600Z,72.70
2022-09-03T21:37:54.033Z,72.80
2022-09-03T21:40:29.293Z,73.00
2022-09-03T21:43:02.479Z,73.10
2022-09-03T21:45:36.223Z,73.20
2022-09-03T21:48:10.133Z,73.20
2022-09-03T21:50:48.596Z,73.20
2022-09-03T21:53:24.383Z,73.30
2022-09-03T21:56:11.082Z,73.50
2022-09-03T21:58:55.699Z,73.60
2022-09-03T22:01:34.270Z,73.90
2022-09-03T22:04:02.651Z,74.00
2022-09-03T22:06:39.993Z,74.10
2022-09-03T22:09:13.239Z,74.20
2022-09-03T22:11:52.612Z,74.40
2022-09-03T22:14:21.363Z,74.40
2022-09-03T22:16:55.731Z,74.50
2022-09-03T22:19:24.025Z,74.50
2022-09-03T22:21:59.621Z,74.70
2022-09-03T22:24:39.910Z,74.80
2022-09-03T22:27:18.578Z,74.80
2022-09-03T22:29:57.220Z,74.90
2022-09-03T22:32:36.463Z,74.90
2022-09-03T22:35:14.747Z,74.90
2022-09-03T22:37:57.536Z,75.00
2022-09-03T22:40:29.851Z,75.10
2022-09-03T22:43:11.311Z,75.10
2022-09-03T22:45:58.950Z,75.20
2022-09-03T22:48:40.728Z,75.30
2022-09-03T22:51:09.781Z,75.50
2022-09-03T22:53:54.307Z,75.60
2022-09-03T22:56:23.144Z,75.70
2022-09-03T22:58:56.892Z,75.80
2022-09-03T23:01:30.780Z,75.80
2022-09-03T23:04:04.351Z,75.80
2022-09-03T23:06:35.328Z,75.90
2022-09-03T23:09:08.032Z,75.90
2022-09-03T23:11:42.326Z,76.00
2022-09-03T23:14:14.150Z,76.00
2022-09-03T23:16:47.131Z,76.20
2022-09-03T23:21:57.034Z,76.30
2022-09-03T23:24:29.059Z,76.40
2022-09-03T23:26:59.885Z,76.50
2022-09-03T23:29:35.885Z,76.50
2022-09-03T23:32:05.484Z,76.50
2022-09-03T23:34:34.505Z,76.60
2022-09-03T23:37:35.289Z,76.60
2022-09-03T23:40:29.007Z,76.50
2022-09-03T23:43:31.138Z,76.60
2022-09-03T23:46:10.064Z,76.60
2022-09-03T23:48:49.880Z,76.70
2022-09-03T23:51:23.604Z,76.70
2022-09-03T23:54:05.583Z,76.90
2022-09-03T23:57:00.103Z,77.00
2022-09-03T23:59:36.498Z,77.00
